Time;durP1;ratioP1;P1;durP2;ratioP2;P2;SDS_P1;SDS_P2;PMS_P1;PMS_P2;Temp;Humidity;BMP_temperature;BMP_pressure;BME280_temperature;BME280_humidity;BME280_pressure;Samples;Min_cycle;Max_cycle;Signal;HPM_P1;HPM_P2
2024/01/17 00:03:41;;;;;;;;;;;4.30;55.70;;;2.53;60.83;100132.69;12246655;19;19926;-87
2024/01/17 00:07:43;;;;;;;;;;;4.30;55.70;;;2.62;60.75;100150.47;12243508;19;20408;-87
2024/01/17 00:11:44;;;;;;;;;;;4.30;55.70;;;2.48;60.71;100129.41;12247737;19;19918;-87
2024/01/17 00:15:46;;;;;;;;;;;4.30;55.70;;;2.11;60.92;100073.91;12243545;19;20031;-87
2024/01/17 00:19:47;;;;;;;;;;;4.20;55.70;;;2.48;60.65;100137.13;12246436;19;19923;-87
2024/01/17 00:23:49;;;;;;;;;;;4.10;55.60;;;2.44;60.81;100136.41;12245875;19;19931;-87
2024/01/17 00:27:50;;;;;;;;;;;4.10;55.60;;;2.04;60.91;100063.84;12242354;19;19922;-87
2024/01/17 00:31:51;;;;;;;;;;;4.10;55.60;;;2.34;60.76;100124.69;12247215;19;20330;-87
2024/01/17 00:35:53;;;;;;;;;;;4.00;55.60;;;1.81;60.69;100047.38;12241486;19;19925;-87
2024/01/17 00:39:54;;;;;;;;;;;4.30;55.70;;;2.30;60.59;100130.84;12246388;19;19986;-87
2024/01/17 00:43:56;;;;;;;;;;;4.00;55.60;;;2.32;60.67;100133.34;12244682;19;19914;-87
2024/01/17 00:47:58;;;;;;;;;;;4.20;55.70;;;1.92;60.67;100091.66;12243019;19;19961;-87
2024/01/17 00:51:59;;;;;;;;;;;4.20;55.70;;;2.00;60.59;100099.16;12245607;19;19923;-87
2024/01/17 00:56:01;;;;;;;;;;;4.20;55.70;;;1.59;60.47;100033.44;12240833;19;19911;-87
2024/01/17 01:00:04;;;;;;;;;;;3.90;55.50;;;2.07;60.86;100118.66;12244531;19;20282;-86
2024/01/17 01:04:09;;;;;;;;;;;3.80;55.40;;;1.97;60.71;100101.78;12243518;19;19925;-87
2024/01/17 01:08:12;;;;;;;;;;;3.80;55.50;;;1.66;60.78;100058.09;12242645;19;19949;-86
2024/01/17 01:12:14;;;;;;;;;;;3.70;55.50;;;2.00;60.79;100119.75;12246271;19;19922;-86
2024/01/17 01:16:15;;;;;;;;;;;3.70;55.50;;;1.96;60.69;100118.97;12240838;19;19931;-86
2024/01/17 01:20:17;;;;;;;;;;;3.70;55.50;;;1.89;60.74;100104.63;12251886;19;19937;-86
2024/01/17 01:24:19;;;;;;;;;;;3.90;55.70;;;1.94;60.58;100104.47;12255348;19;20346;-86
2024/01/17 01:28:20;;;;;;;;;;;4.00;55.70;;;1.82;60.64;100084.25;12252537;19;19990;-86
2024/01/17 01:32:22;;;;;;;;;;;3.60;55.50;;;1.72;60.71;100073.38;12256577;19;19910;-86
2024/01/17 01:36:23;;;;;;;;;;;3.60;55.50;;;1.76;60.62;100087.84;12251954;19;19986;-86
2024/01/17 01:40:24;;;;;;;;;;;3.70;55.50;;;1.73;60.73;100081.06;12258461;19;19915;-86
2024/01/17 01:44:26;;;;;;;;;;;3.50;55.40;;;1.75;60.56;100102.41;12256184;19;19919;-86
2024/01/17 01:48:28;;;;;;;;;;;3.50;55.50;;;1.64;60.45;100072.75;12252683;19;19923;-87
2024/01/17 01:52:29;;;;;;;;;;;3.50;55.50;;;1.69;60.69;100084.59;12254515;19;20342;-87
2024/01/17 01:56:33;;;;;;;;;;;3.40;55.50;;;1.66;60.61;100083.84;12251271;19;19911;-87
2024/01/17 02:00:35;;;;;;;;;;;3.30;55.30;;;1.57;60.57;100069.53;12252106;19;20364;-87
2024/01/17 02:04:37;;;;;;;;;;;3.30;55.30;;;1.56;60.62;100072.97;12252408;19;19919;-87
2024/01/17 02:08:38;;;;;;;;;;;3.30;55.40;;;1.47;60.73;100057.81;12247600;19;19926;-87
2024/01/17 02:12:40;;;;;;;;;;;3.30;55.40;;;1.30;60.63;100032.56;12254286;19;19938;-87
2024/01/17 02:16:42;;;;;;;;;;;3.40;55.40;;;0.98;60.54;99982.88;12248155;19;20330;-87
2024/01/17 02:20:43;;;;;;;;;;;3.30;55.30;;;1.42;60.57;100062.22;12252272;19;19914;-87
2024/01/17 02:24:45;;;;;;;;;;;3.40;55.40;;;1.35;60.60;100053.84;12251306;19;20231;-87
2024/01/17 02:28:46;;;;;;;;;;;3.30;55.20;;;1.05;60.49;99998.97;12247847;19;19923;-87
2024/01/17 02:32:48;;;;;;;;;;;3.20;55.20;;;1.30;60.64;100053.97;12250274;19;20736;-86
2024/01/17 02:36:50;;;;;;;;;;;3.10;55.20;;;1.20;60.67;100029.41;12248735;19;19915;-87
2024/01/17 02:40:51;;;;;;;;;;;3.00;55.20;;;1.27;60.48;100037.78;12252939;19;19925;-86
2024/01/17 02:44:53;;;;;;;;;;;2.90;55.20;;;1.12;60.52;100015.06;12251219;19;19930;-86
2024/01/17 02:48:54;;;;;;;;;;;2.90;55.20;;;1.19;60.37;100030.28;12247721;19;19915;-86
2024/01/17 02:52:56;;;;;;;;;;;2.90;55.20;;;0.83;60.44;99970.44;12242556;19;19919;-87
2024/01/17 02:56:57;;;;;;;;;;;2.80;55.10;;;0.81;60.35;99970.50;12247052;19;19914;-86
2024/01/17 03:00:59;;;;;;;;;;;2.80;55.10;;;0.91;60.38;99983.09;12249946;19;19915;-86
2024/01/17 03:05:01;;;;;;;;;;;2.80;55.00;;;0.73;60.49;99958.72;12250920;19;19961;-86
2024/01/17 03:09:03;;;;;;;;;;;3.00;55.10;;;0.99;60.51;100002.56;12247848;19;19979;-86
2024/01/17 03:13:05;;;;;;;;;;;2.80;55.10;;;0.88;60.57;99987.41;12251340;19;19953;-86
2024/01/17 03:17:08;;;;;;;;;;;2.60;55.00;;;0.83;60.42;99979.00;12246596;19;20475;-86
2024/01/17 03:21:09;;;;;;;;;;;2.60;55.00;;;0.81;60.35;99979.91;12250316;19;20259;-86
2024/01/17 03:25:11;;;;;;;;;;;2.60;55.00;;;0.60;60.27;99943.66;12249120;19;19926;-86
2024/01/17 03:29:12;;;;;;;;;;;2.50;55.00;;;0.77;60.64;99974.03;12247483;19;20263;-86
2024/01/17 03:33:14;;;;;;;;;;;2.50;55.00;;;0.69;60.43;99960.53;12249607;19;19918;-86
2024/01/17 03:37:15;;;;;;;;;;;2.70;55.10;;;0.72;60.47;99969.91;12246035;19;20318;-86
2024/01/17 03:41:17;;;;;;;;;;;2.50;55.00;;;0.59;60.59;99957.38;12250042;19;19928;-86
2024/01/17 03:45:18;;;;;;;;;;;2.40;54.90;;;0.36;60.24;99923.78;12247068;19;19925;-86
2024/01/17 03:49:20;;;;;;;;;;;2.60;54.90;;;0.48;60.49;99943.13;12249569;19;19923;-86
2024/01/17 03:53:21;;;;;;;;;;;2.30;54.90;;;0.47;60.39;99938.91;12247609;19;19926;-86
2024/01/17 03:57:23;;;;;;;;;;;2.40;54.90;;;0.29;60.52;99905.09;12245139;19;19933;-86
2024/01/17 04:01:25;;;;;;;;;;;2.50;55.00;;;0.43;60.46;99932.97;12249829;19;19915;-86
2024/01/17 04:05:27;;;;;;;;;;;2.20;54.80;;;-0.14;60.45;99838.66;12247977;19;19930;-86
2024/01/17 04:09:28;;;;;;;;;;;2.10;54.70;;;0.02;60.31;99878.44;12247541;19;20280;-86
2024/01/17 04:13:29;;;;;;;;;;;2.00;54.70;;;0.12;60.35;99891.88;12249493;19;19918;-86
2024/01/17 04:17:31;;;;;;;;;;;2.00;54.70;;;0.07;60.51;99881.72;12244903;19;19919;-86
2024/01/17 04:21:32;;;;;;;;;;;2.00;54.80;;;-0.04;60.38;99874.28;12246240;19;19935;-86
2024/01/17 04:25:35;;;;;;;;;;;1.90;54.80;;;0.09;60.35;99885.09;12247730;19;19918;-86
2024/01/17 04:29:37;;;;;;;;;;;1.90;54.80;;;0.08;60.44;99883.41;12247843;19;19919;-86
2024/01/17 04:33:38;;;;;;;;;;;1.90;54.90;;;0.06;60.30;99882.63;12245961;19;19915;-86
2024/01/17 04:37:39;;;;;;;;;;;2.00;54.90;;;-0.09;60.46;99849.63;12241401;19;19927;-86
2024/01/17 04:41:41;;;;;;;;;;;1.80;54.80;;;0.01;60.34;99878.47;12247362;19;19910;-86
2024/01/17 04:45:42;;;;;;;;;;;1.70;54.80;;;-0.10;60.29;99861.63;12243982;19;19925;-86
2024/01/17 04:49:44;;;;;;;;;;;1.70;54.70;;;-0.15;60.48;99858.34;12244924;19;19918;-86
2024/01/17 04:53:46;;;;;;;;;;;1.70;54.80;;;-0.14;60.49;99857.44;12245819;19;20600;-86
2024/01/17 04:57:49;;;;;;;;;;;1.70;54.80;;;-0.16;60.43;99863.50;12252509;19;19931;-86
2024/01/17 05:01:51;;;;;;;;;;;1.80;54.90;;;-0.16;60.33;99859.22;12249606;19;19922;-87
2024/01/17 05:05:53;;;;;;;;;;;1.60;54.90;;;-0.23;60.30;99845.69;12256692;19;19922;-86
2024/01/17 05:09:54;;;;;;;;;;;1.60;54.80;;;-0.35;60.40;99824.63;12255752;19;19936;-86
2024/01/17 05:13:56;;;;;;;;;;;1.60;54.70;;;-0.53;60.29;99795.19;12246723;19;19923;-87
2024/01/17 05:17:57;;;;;;;;;;;1.50;54.60;;;-0.37;60.44;99822.13;12253759;19;19926;-86
2024/01/17 05:21:59;;;;;;;;;;;1.50;54.70;;;-0.91;60.34;99736.28;12252637;19;19922;-86
2024/01/17 05:26:00;;;;;;;;;;;1.70;54.70;;;-0.43;60.39;99819.72;12254094;19;19935;-86
2024/01/17 05:30:02;;;;;;;;;;;1.40;54.60;;;-0.87;60.36;99741.31;12255260;19;19949;-86
2024/01/17 05:34:03;;;;;;;;;;;1.40;54.70;;;-0.56;60.37;99788.41;12250529;19;19922;-86
2024/01/17 05:38:23;;;;;;;;;;;1.70;54.90;;;-0.92;60.27;99719.22;12253176;19;19948;-86
2024/01/17 05:42:25;;;;;;;;;;;1.30;54.70;;;-1.06;60.53;99708.47;12257111;19;19919;-86
2024/01/17 05:46:26;;;;;;;;;;;1.40;54.80;;;-0.80;60.33;99743.72;12254929;19;19915;-86
2024/01/17 05:50:33;;;;;;;;;;;1.40;54.80;;;-1.08;60.60;99694.00;12256078;19;19911;-86
2024/01/17 05:54:35;;;;;;;;;;;1.30;54.70;;;-0.96;60.46;99715.06;12253586;19;19923;-86
2024/01/17 05:58:36;;;;;;;;;;;1.40;54.80;;;-0.64;60.38;99767.25;12251963;19;19923;-87
2024/01/17 06:02:38;;;;;;;;;;;1.20;54.70;;;-1.03;60.45;99702.41;12256607;19;19927;-86
2024/01/17 06:06:40;;;;;;;;;;;1.20;54.70;;;-0.65;60.46;99765.53;12254752;19;19914;-86
2024/01/17 06:10:42;;;;;;;;;;;1.20;54.80;;;-0.75;60.55;99746.16;12254327;19;20349;-86
2024/01/17 06:14:43;;;;;;;;;;;1.20;54.70;;;-0.68;60.47;99747.69;12253692;19;19919;-86
2024/01/17 06:18:45;;;;;;;;;;;1.10;54.70;;;-0.65;60.38;99759.56;12249972;19;19926;-86
2024/01/17 06:22:46;;;;;;;;;;;1.10;54.70;;;-0.69;60.42;99758.81;12254277;19;19915;-86
2024/01/17 06:26:48;;;;;;;;;;;1.10;54.70;;;-0.78;60.40;99744.53;12253816;19;19918;-87
2024/01/17 06:30:49;;;;;;;;;;;1.30;54.80;;;-0.74;60.37;99742.72;12253021;19;19907;-89
2024/01/17 06:34:51;;;;;;;;;;;1.00;54.70;;;-0.80;60.48;99724.94;12251443;19;20009;-87
2024/01/17 06:38:52;;;;;;;;;;;1.10;54.60;;;-0.85;60.24;99716.50;12249719;19;19922;-86
2024/01/17 06:42:54;;;;;;;;;;;1.00;54.60;;;-0.91;60.30;99710.66;12254935;19;19923;-86
2024/01/17 06:46:55;;;;;;;;;;;1.00;54.60;;;-0.92;60.44;99710.69;12256911;19;20002;-86
2024/01/17 06:50:57;;;;;;;;;;;0.90;54.50;;;-0.98;60.54;99704.00;12254975;19;19922;-85
2024/01/17 06:54:58;;;;;;;;;;;1.20;54.60;;;-1.57;60.38;99594.47;12252490;19;20322;-86
2024/01/17 06:59:00;;;;;;;;;;;1.10;54.60;;;-0.95;60.35;99690.25;12248183;19;19930;-85
2024/01/17 07:03:02;;;;;;;;;;;1.10;54.60;;;-1.24;60.42;99637.19;12253973;19;19914;-86
2024/01/17 07:07:03;;;;;;;;;;;0.80;54.50;;;-1.13;60.42;99655.72;12250130;19;19930;-85
2024/01/17 07:11:05;;;;;;;;;;;1.10;54.70;;;-1.06;60.38;99662.34;12252132;19;19927;-86
2024/01/17 07:15:06;;;;;;;;;;;0.80;54.60;;;-1.19;60.46;99632.78;12251477;19;19944;-86
2024/01/17 07:19:07;;;;;;;;;;;0.80;54.60;;;-1.22;60.52;99613.22;12240834;19;20255;-86
2024/01/17 07:23:10;;;;;;;;;;;0.80;54.60;;;-1.27;60.43;99602.28;12252228;19;19922;-88
2024/01/17 07:27:11;;;;;;;;;;;1.10;54.80;;;-1.02;60.42;99638.34;12253939;19;19925;-84
2024/01/17 07:31:13;;;;;;;;;;;0.80;54.60;;;-1.17;60.48;99615.66;12254124;19;19914;-84
2024/01/17 07:35:15;;;;;;;;;;;1.00;54.70;;;-1.04;60.61;99639.25;12248594;19;19918;-84
2024/01/17 07:39:18;;;;;;;;;;;0.80;54.60;;;-1.33;60.43;99582.75;12253922;19;20376;-84
2024/01/17 07:43:19;;;;;;;;;;;0.90;54.70;;;-1.15;60.58;99603.66;12254161;19;19918;-83
2024/01/17 07:47:21;;;;;;;;;;;1.00;54.70;;;-1.35;60.37;99548.69;12243549;19;19923;-83
2024/01/17 07:51:23;;;;;;;;;;;0.80;54.70;;;-1.18;60.50;99573.03;12247056;19;19927;-83
2024/01/17 07:55:25;;;;;;;;;;;1.00;54.70;;;-1.13;60.48;99566.06;12245147;19;19947;-85
2024/01/17 07:59:27;;;;;;;;;;;0.80;54.60;;;-1.30;60.49;99540.03;12248514;19;19915;-85
2024/01/17 08:03:29;;;;;;;;;;;0.80;54.70;;;-1.09;60.50;99565.09;12248005;19;19923;-84
2024/01/17 08:07:31;;;;;;;;;;;0.90;54.70;;;-1.13;60.58;99556.66;12244141;19;19929;-84
2024/01/17 08:11:33;;;;;;;;;;;0.80;54.70;;;-1.07;60.59;99554.81;12249212;19;19929;-84
2024/01/17 08:15:34;;;;;;;;;;;0.90;54.80;;;-1.06;60.61;99536.00;12243319;19;20416;-84
2024/01/17 08:19:36;;;;;;;;;;;0.90;54.80;;;-1.07;60.59;99526.63;12250923;19;20346;-84
2024/01/17 08:23:38;;;;;;;;;;;0.80;54.80;;;-1.02;60.61;99510.25;12246674;19;19929;-84
2024/01/17 08:27:40;;;;;;;;;;;1.10;55.00;;;-1.02;60.63;99497.44;12243944;19;19927;-84
2024/01/17 08:31:41;;;;;;;;;;;0.90;55.00;;;-0.93;60.71;99504.03;12244858;19;19911;-85
2024/01/17 08:35:42;;;;;;;;;;;0.90;55.10;;;-1.07;60.78;99468.56;12246070;19;19914;-84
2024/01/17 08:39:44;;;;;;;;;;;1.20;55.20;;;-0.92;60.70;99477.50;12246028;19;19923;-84
2024/01/17 08:43:46;;;;;;;;;;;1.00;55.10;;;-0.84;60.58;99479.84;12245579;19;19947;-84
2024/01/17 08:47:47;;;;;;;;;;;1.40;55.30;;;-0.96;60.77;99446.03;12243433;19;19982;-85
2024/01/17 08:51:50;;;;;;;;;;;1.10;55.20;;;-0.97;60.72;99428.97;12246858;19;19931;-85
2024/01/17 08:55:53;;;;;;;;;;;1.20;55.20;;;-0.62;60.81;99464.69;12245182;19;20338;-84
2024/01/17 08:59:54;;;;;;;;;;;1.20;55.20;;;-0.55;60.74;99459.34;12245363;19;19919;-85
2024/01/17 09:03:56;;;;;;;;;;;1.60;55.40;;;-0.52;60.74;99453.28;12238649;19;19919;-86
2024/01/17 09:07:58;;;;;;;;;;;1.40;55.30;;;-0.38;60.69;99456.25;12242121;19;19926;-87
2024/01/17 09:11:59;;;;;;;;;;;1.80;55.30;;;-0.49;60.86;99418.16;12244112;19;19915;-87
2024/01/17 09:16:01;;;;;;;;;;;1.50;55.20;;;-0.35;60.86;99429.66;12241910;19;19922;-87
2024/01/17 09:20:03;;;;;;;;;;;1.60;55.20;;;-0.42;60.85;99408.53;12246088;19;19940;-86
2024/01/17 09:24:05;;;;;;;;;;;1.60;55.20;;;-0.29;60.88;99430.34;12242883;19;19922;-85
2024/01/17 09:28:06;;;;;;;;;;;1.60;55.10;;;-0.19;60.74;99435.16;12240251;19;19923;-85
2024/01/17 09:32:08;;;;;;;;;;;1.70;55.20;;;-0.15;60.95;99431.63;12241704;19;19934;-86
2024/01/17 09:36:09;;;;;;;;;;;1.70;55.10;;;-0.09;60.85;99427.13;12240218;19;19915;-86
2024/01/17 09:40:13;;;;;;;;;;;1.80;55.20;;;-0.10;60.92;99399.78;12247146;19;19927;-86
2024/01/17 09:44:14;;;;;;;;;;;1.80;55.20;;;-0.06;60.82;99391.09;12256152;19;19918;-83
2024/01/17 09:48:16;;;;;;;;;;;1.80;55.10;;;0.02;60.74;99397.69;12250947;19;19935;-87
2024/01/17 09:52:21;;;;;;;;;;;2.00;55.10;;;-0.16;60.90;99342.69;12255478;19;19943;-86
2024/01/17 09:56:25;;;;;;;;;;;2.00;55.20;;;0.13;60.98;99385.34;12252965;19;19921;-86
2024/01/17 10:00:27;;;;;;;;;;;2.00;55.10;;;0.14;60.80;99359.63;12259041;19;19919;-85
2024/01/17 10:04:29;;;;;;;;;;;2.10;55.20;;;0.15;60.98;99339.94;12255599;19;20528;-85
2024/01/17 10:08:31;;;;;;;;;;;2.20;55.20;;;0.37;61.00;99353.69;12247951;19;19919;-86
2024/01/17 10:12:33;;;;;;;;;;;2.20;55.10;;;0.40;61.05;99327.88;12257847;19;19987;-87
2024/01/17 10:16:35;;;;;;;;;;;2.60;55.30;;;0.53;60.84;99330.03;12258743;19;19932;-86
2024/01/17 10:20:37;;;;;;;;;;;2.40;55.30;;;0.65;61.04;99338.13;12261664;19;19994;-85
2024/01/17 10:24:39;;;;;;;;;;;2.50;55.20;;;0.62;60.95;99304.84;12256883;19;20295;-86
2024/01/17 10:28:40;;;;;;;;;;;2.80;55.40;;;0.49;60.84;99264.25;12256011;19;19915;-85
2024/01/17 10:32:43;;;;;;;;;;;2.70;55.30;;;0.90;60.83;99305.53;12258529;19;19915;-86
2024/01/17 10:36:45;;;;;;;;;;;2.80;55.30;;;0.86;60.93;99284.22;12255594;19;19926;-87
2024/01/17 10:41:01;;;;;;;;;;;3.00;55.30;;;0.92;60.95;99262.59;12254818;19;19918;-87
2024/01/17 10:45:05;;;;;;;;;;;2.80;55.00;;;0.76;61.00;99222.13;12255362;19;19928;-87
2024/01/17 10:49:06;;;;;;;;;;;2.90;55.10;;;1.12;60.99;99262.66;12242351;19;20401;-86
2024/01/17 10:53:08;;;;;;;;;;;3.10;55.20;;;1.19;60.85;99256.38;12250391;19;19922;-86
2024/01/17 10:57:10;;;;;;;;;;;3.10;55.10;;;1.27;61.00;99241.47;12249186;19;19944;-86
2024/01/17 11:01:14;;;;;;;;;;;3.10;55.00;;;1.18;60.94;99208.41;12259144;19;19925;-86
2024/01/17 11:05:18;;;;;;;;;;;3.20;55.00;;;1.36;61.06;99216.28;12256200;19;20290;-86
2024/01/17 11:09:22;;;;;;;;;;;3.50;55.20;;;1.52;61.04;99214.72;12257562;19;20123;-86
2024/01/17 11:13:25;;;;;;;;;;;3.50;55.00;;;1.64;61.09;99209.03;12257906;19;19915;-86
2024/01/17 11:17:28;;;;;;;;;;;3.50;55.00;;;1.64;61.05;99180.75;12256215;19;19907;-86
2024/01/17 11:21:31;;;;;;;;;;;3.80;55.10;;;1.47;60.87;99136.94;12256352;19;19919;-86
2024/01/17 11:25:39;;;;;;;;;;;3.60;55.00;;;1.59;61.07;99131.22;12257454;19;19961;-85
2024/01/17 11:30:17;;;;;;;;;;;3.70;54.80;;;1.90;61.01;99163.34;12257258;19;20265;-86
2024/01/17 11:34:19;;;;;;;;;;;3.70;54.80;;;1.86;61.08;99154.91;12254230;19;19927;-86
2024/01/17 11:38:23;;;;;;;;;;;4.00;54.40;;;1.99;60.81;99155.19;12253259;19;20338;-85
2024/01/17 11:42:25;;;;;;;;;;;3.80;54.60;;;1.91;61.04;99121.25;12259873;19;19923;-86
2024/01/17 11:46:26;;;;;;;;;;;3.90;54.70;;;1.99;61.14;99119.16;12256611;19;19919;-86
2024/01/17 11:50:28;;;;;;;;;;;3.90;54.80;;;1.83;60.96;99077.84;12255449;19;19922;-86
2024/01/17 11:54:29;;;;;;;;;;;3.90;54.60;;;2.13;60.83;99098.75;12255543;19;20344;-86
2024/01/17 11:58:47;;;;;;;;;;;4.20;54.90;;;2.18;61.00;99094.22;12251466;19;19942;-86
2024/01/17 12:02:48;;;;;;;;;;;4.10;54.70;;;2.17;60.94;99074.53;12257757;19;19921;-86
2024/01/17 12:06:51;;;;;;;;;;;4.10;54.70;;;2.26;60.79;99072.41;12250989;19;19931;-86
2024/01/17 12:10:54;;;;;;;;;;;4.30;54.70;;;2.35;61.06;99059.09;12256174;19;20420;-86
2024/01/17 12:14:55;;;;;;;;;;;4.20;54.70;;;2.35;61.10;99047.06;12250709;19;19937;-86
2024/01/17 12:18:57;;;;;;;;;;;4.20;54.60;;;2.47;60.88;99039.66;12255181;19;19919;-86
2024/01/17 12:22:59;;;;;;;;;;;4.30;54.70;;;2.47;60.92;99021.63;12259466;19;20363;-86
2024/01/17 12:27:05;;;;;;;;;;;4.30;54.70;;;2.52;60.91;99020.47;12252828;19;19927;-87
2024/01/17 12:31:07;;;;;;;;;;;4.40;54.80;;;2.34;60.90;98975.84;12254457;19;19944;-87
2024/01/17 12:35:09;;;;;;;;;;;4.40;54.80;;;2.34;60.79;98965.53;12249613;19;19918;-88
2024/01/17 12:39:12;;;;;;;;;;;4.50;54.60;;;2.68;60.88;98997.34;12251185;19;19915;-85
2024/01/17 12:43:14;;;;;;;;;;;4.50;54.70;;;2.69;60.97;98993.03;12251956;19;19911;-86
2024/01/17 12:47:17;;;;;;;;;;;4.50;54.80;;;2.63;60.99;98979.53;12250076;19;19927;-86
2024/01/17 12:51:19;;;;;;;;;;;4.50;54.50;;;2.66;60.91;98970.81;12249038;19;19918;-85
2024/01/17 12:55:22;;;;;;;;;;;4.60;54.70;;;2.47;60.86;98926.31;12251869;19;19929;-87
2024/01/17 12:59:24;;;;;;;;;;;4.60;54.70;;;2.63;60.72;98951.19;12251039;19;20297;-87
2024/01/17 13:03:26;;;;;;;;;;;4.80;54.60;;;2.80;60.82;98973.50;12251283;19;19925;-88
2024/01/17 13:07:27;;;;;;;;;;;4.60;54.60;;;2.87;61.01;98979.19;12247983;19;19919;-87
2024/01/17 13:11:29;;;;;;;;;;;4.80;54.80;;;2.83;60.80;98962.22;12251485;19;19948;-88
2024/01/17 13:15:30;;;;;;;;;;;4.70;54.80;;;2.87;60.77;98964.56;12252163;19;19939;-86
2024/01/17 13:19:32;;;;;;;;;;;4.70;54.50;;;2.78;60.82;98931.53;12262425;19;19923;-88
2024/01/17 13:23:33;;;;;;;;;;;5.00;54.40;;;2.83;60.83;98937.25;12257163;19;19911;-88
2024/01/17 13:27:36;;;;;;;;;;;4.70;54.40;;;2.87;60.80;98940.53;12255400;19;19923;-90
2024/01/17 13:31:38;;;;;;;;;;;4.70;54.40;;;2.79;60.85;98919.47;12257659;19;19931;-88
2024/01/17 13:35:43;;;;;;;;;;;4.70;54.40;;;2.65;60.74;98892.69;12258652;19;19931;-88
2024/01/17 13:39:44;;;;;;;;;;;4.70;54.50;;;2.89;60.78;98918.09;12257665;19;19919;-87
2024/01/17 13:43:45;;;;;;;;;;;4.70;54.60;;;2.80;60.73;98890.22;12253297;19;20960;-87
2024/01/17 13:47:47;;;;;;;;;;;4.70;54.50;;;2.92;60.79;98917.94;12250616;19;19918;-87
2024/01/17 13:51:50;;;;;;;;;;;4.70;54.40;;;2.76;60.62;98878.41;12259734;19;20314;-86
2024/01/17 13:55:52;;;;;;;;;;;4.70;54.40;;;2.81;60.87;98881.59;12256213;19;19949;-88
2024/01/17 13:59:53;;;;;;;;;;;4.70;54.30;;;2.74;60.58;98870.75;12262100;19;19923;-87
2024/01/17 14:03:54;;;;;;;;;;;4.70;54.40;;;2.86;60.75;98876.97;12264319;19;19915;-88
2024/01/17 14:07:57;;;;;;;;;;;4.70;54.50;;;2.79;60.73;98857.63;12257792;19;19982;-88
2024/01/17 14:11:59;;;;;;;;;;;4.90;54.60;;;2.81;60.65;98856.63;12263090;19;19930;-87
2024/01/17 14:16:01;;;;;;;;;;;4.70;54.50;;;2.82;60.59;98854.88;12259207;19;19978;-87
2024/01/17 14:20:04;;;;;;;;;;;4.70;54.60;;;2.83;60.70;98841.06;12260223;19;20357;-87
2024/01/17 14:24:05;;;;;;;;;;;4.70;54.60;;;2.69;60.57;98800.59;12262888;19;20718;-88
2024/01/17 14:28:07;;;;;;;;;;;4.70;54.60;;;2.88;60.79;98823.59;12255155;19;19915;-87
2024/01/17 14:32:09;;;;;;;;;;;4.70;54.60;;;2.71;60.48;98795.34;12260337;19;19930;-88
2024/01/17 14:36:11;;;;;;;;;;;4.70;54.50;;;2.64;60.45;98798.25;12239093;19;19911;-87
2024/01/17 14:40:13;;;;;;;;;;;4.70;54.50;;;2.89;60.57;98830.44;12261184;19;19923;-87
2024/01/17 14:44:14;;;;;;;;;;;4.70;54.50;;;2.77;60.53;98795.84;12258310;19;19918;-87
2024/01/17 14:48:16;;;;;;;;;;;4.70;54.50;;;2.88;60.67;98803.81;12254077;19;19919;-87
2024/01/17 14:52:17;;;;;;;;;;;4.60;54.50;;;2.66;60.53;98760.34;12256645;19;19927;-87
2024/01/17 14:56:19;;;;;;;;;;;4.60;54.50;;;2.54;60.67;98742.13;12236936;19;19922;-87
2024/01/17 15:00:21;;;;;;;;;;;4.60;54.50;;;2.68;60.46;98760.28;12258325;19;19922;-87
2024/01/17 15:04:23;;;;;;;;;;;4.60;54.50;;;2.80;60.53;98774.22;12252058;19;19931;-87
2024/01/17 15:08:26;;;;;;;;;;;4.60;54.50;;;2.51;60.49;98712.25;12256794;19;19922;-87
2024/01/17 15:12:27;;;;;;;;;;;4.60;54.50;;;2.79;60.43;98749.38;12260708;19;19938;-87
2024/01/17 15:16:30;;;;;;;;;;;4.60;54.60;;;2.78;60.49;98739.97;12255793;19;19926;-87
2024/01/17 15:20:32;;;;;;;;;;;4.60;54.50;;;2.52;60.50;98684.75;12248532;19;19945;-87
2024/01/17 15:24:33;;;;;;;;;;;4.50;54.50;;;2.70;60.31;98704.34;12258888;19;19950;-87
2024/01/17 15:28:38;;;;;;;;;;;4.50;54.40;;;2.64;60.45;98687.44;12248214;19;19919;-87
2024/01/17 15:32:40;;;;;;;;;;;4.50;54.50;;;2.62;60.56;98689.31;12258285;19;19926;-87
2024/01/17 15:36:41;;;;;;;;;;;4.60;54.40;;;2.75;60.39;98707.47;12253815;19;19940;-87
2024/01/17 15:40:55;;;;;;;;;;;4.50;54.40;;;2.72;60.55;98691.34;12245375;19;20313;-87
2024/01/17 15:44:58;;;;;;;;;;;4.50;54.40;;;2.70;60.28;98681.16;12244990;19;20010;-87
2024/01/17 15:49:00;;;;;;;;;;;4.50;54.50;;;2.73;60.32;98678.41;12254525;19;19926;-87
2024/01/17 15:53:04;;;;;;;;;;;4.50;54.50;;;2.67;60.42;98663.25;12260634;19;19918;-87
2024/01/17 15:57:05;;;;;;;;;;;4.50;54.40;;;2.72;60.12;98666.41;12258305;19;20337;-87
2024/01/17 16:01:08;;;;;;;;;;;4.50;54.40;;;2.69;60.35;98658.84;12260585;19;19903;-87
2024/01/17 16:05:09;;;;;;;;;;;4.50;54.40;;;2.74;60.36;98658.59;12260357;19;20358;-87
2024/01/17 16:09:11;;;;;;;;;;;4.50;54.40;;;2.70;60.28;98651.94;12258282;19;19919;-87
2024/01/17 16:13:13;;;;;;;;;;;4.50;54.50;;;2.73;60.40;98652.63;12258225;19;19975;-87
2024/01/17 16:17:14;;;;;;;;;;;4.50;54.50;;;2.54;60.29;98611.63;12252578;19;19937;-87
2024/01/17 16:21:19;;;;;;;;;;;4.50;54.60;;;2.77;60.38;98650.69;12251958;19;20160;-87
2024/01/17 16:25:22;;;;;;;;;;;4.70;54.70;;;2.74;60.45;98650.88;12245388;19;19922;-90
2024/01/17 16:29:23;;;;;;;;;;;4.70;54.70;;;2.74;60.31;98643.16;12244321;19;19922;-86
2024/01/17 16:33:24;;;;;;;;;;;4.60;54.60;;;2.82;60.25;98646.13;12250678;19;19919;-87
2024/01/17 16:37:27;;;;;;;;;;;4.50;54.60;;;2.70;60.26;98627.03;12242472;19;19923;-87
2024/01/17 16:41:29;;;;;;;;;;;4.60;54.60;;;2.67;60.11;98627.19;12243690;19;20383;-87
2024/01/17 16:45:30;;;;;;;;;;;4.50;54.60;;;2.77;60.28;98633.47;12242548;19;19934;-86
2024/01/17 16:49:32;;;;;;;;;;;4.80;54.70;;;2.81;60.31;98639.31;12243253;19;19919;-86
2024/01/17 16:53:34;;;;;;;;;;;4.80;54.60;;;2.83;60.23;98632.28;12248424;19;19932;-86
2024/01/17 16:57:38;;;;;;;;;;;4.50;54.50;;;2.74;60.22;98627.69;12242814;19;19944;-87
2024/01/17 17:01:40;;;;;;;;;;;4.50;54.30;;;2.66;60.29;98623.78;12243122;19;19915;-86
2024/01/17 17:05:41;;;;;;;;;;;4.50;54.40;;;2.58;60.31;98599.38;12240651;19;20313;-86
2024/01/17 17:09:43;;;;;;;;;;;4.50;54.40;;;2.73;60.25;98623.44;12243465;19;20291;-87
2024/01/17 17:13:44;;;;;;;;;;;4.50;54.50;;;2.77;60.40;98632.66;12241261;19;19911;-87
2024/01/17 17:17:46;;;;;;;;;;;4.50;54.50;;;2.71;60.20;98623.53;12240600;19;19918;-87
2024/01/17 17:21:48;;;;;;;;;;;4.50;54.50;;;2.40;60.33;98568.59;12242836;19;19923;-87
2024/01/17 17:25:50;;;;;;;;;;;4.80;54.80;;;2.59;60.29;98598.44;12242979;19;19958;-87
2024/01/17 17:29:52;;;;;;;;;;;4.70;54.70;;;2.65;60.32;98606.69;12240851;19;20346;-87
2024/01/17 17:33:54;;;;;;;;;;;4.50;54.70;;;2.45;60.23;98570.91;12242158;19;19931;-86
2024/01/17 17:38:04;;;;;;;;;;;4.70;54.90;;;2.61;60.17;98586.31;12239875;19;19915;-87
2024/01/17 17:42:05;;;;;;;;;;;4.40;54.80;;;2.66;60.23;98590.28;12241565;19;19911;-87
2024/01/17 17:46:07;;;;;;;;;;;4.40;54.90;;;2.71;60.36;98589.22;12232981;19;20381;-87
2024/01/17 17:50:13;;;;;;;;;;;4.60;55.00;;;2.68;60.23;98584.22;12241037;19;19936;-87
2024/01/17 17:54:14;;;;;;;;;;;4.40;54.90;;;2.72;60.05;98583.13;12243452;19;19926;-86
2024/01/17 17:58:16;;;;;;;;;;;4.60;55.10;;;2.67;60.30;98565.34;12239491;19;19919;-87
2024/01/17 18:02:17;;;;;;;;;;;4.60;55.10;;;2.65;60.33;98556.91;12249159;19;19944;-87
2024/01/17 18:06:19;;;;;;;;;;;4.40;55.10;;;2.60;60.03;98543.44;12250986;19;19929;-87
2024/01/17 18:10:22;;;;;;;;;;;4.60;55.20;;;2.63;60.24;98554.41;12251848;19;19919;-86
2024/01/17 18:14:23;;;;;;;;;;;4.30;55.10;;;2.62;60.24;98545.03;12254927;19;20352;-87
2024/01/17 18:18:25;;;;;;;;;;;4.30;55.10;;;2.54;60.17;98528.31;12250795;19;19918;-87
2024/01/17 18:22:27;;;;;;;;;;;4.30;55.20;;;2.61;60.22;98530.47;12252018;19;20329;-87
2024/01/17 18:26:28;;;;;;;;;;;4.30;55.20;;;2.64;60.26;98532.03;12250631;19;19923;-86
2024/01/17 18:30:30;;;;;;;;;;;4.30;55.20;;;2.62;60.41;98516.69;12252400;19;20600;-87
2024/01/17 18:34:32;;;;;;;;;;;4.60;55.40;;;2.42;60.31;98480.94;12253158;19;19948;-87
2024/01/17 18:38:33;;;;;;;;;;;4.30;55.30;;;2.41;60.16;98477.53;12250188;19;19940;-87
2024/01/17 18:42:35;;;;;;;;;;;4.30;55.30;;;2.69;60.25;98511.16;12251639;19;19915;-87